ADDS METAR Data INFO
IDs: Format: Raw Decoded Include TAF

Data at: 1841 UTC 16 Dec 2017

KLND 161808Z AUTO 32007KT 10SM BKN008 OVC014 M02/M03 A2983 RMK AO2 CIG 007V011 T10171033
KLND 161753Z AUTO 33008KT 10SM SCT007 OVC014 M02/M03 A2983 RMK AO2 SLP117 60003 T10171033 10011 21033 51001
KLND 161736Z AUTO 33009KT 10SM OVC014 M02/M03 A2983 RMK AO2 T10171033
KLND 161726Z AUTO 32009KT 10SM FEW006 OVC015 M02/M03 A2984 RMK AO2 T10171028
KLND 161718Z AUTO 33008KT 9SM SCT006 OVC013 M01/M03 A2984 RMK AO2 T10111028
KLND 161653Z AUTO 33008KT 4SM BR OVC006 M01/M02 A2983 RMK AO2 SNB07E49 CIG 004V010 SLP126 P0001 T10111022
KLND 161649Z AUTO 32009KT 3SM BR BKN006 OVC010 M01/M02 A2983 RMK AO2 SNB07E49 CIG 004V008 P0001
KLND 161641Z AUTO 31010KT 1 1/2SM -SN BR OVC006 M02/M02 A2983 RMK AO2 SNB07 CIG 004V009 P0001 T10171022
KLND 161629Z AUTO 29006KT 3/4SM -SN BR OVC006 M02/M02 A2983 RMK AO2 SNB07 CIG 004V009 P0000 T10171022
KLND 161612Z AUTO 28006KT 1 1/2SM -SN BR BKN008 OVC028 M02/M03 A2983 RMK AO2 SNB07 P0000 T10171028
KLND 161609Z AUTO 27005KT 1 3/4SM -SN BR SCT008 SCT014 OVC028 M02/M03 A2983 RMK AO2 SNB07 P0000 T10171028
KLND 161553Z AUTO 26006KT 2SM BR BKN028 OVC036 M02/M03 A2982 RMK AO2 SNE46 SLP129 P0001 T10221028
KLND 161549Z AUTO 27006KT 2SM BR BKN028 OVC036 M02/M03 A2982 RMK AO2 SNE46 P0001
KLND 161538Z AUTO 28005KT 1 1/4SM -SN BR SCT020 SCT026 OVC036 M03/M03 A2982 RMK AO2 P0001 T10281033
KLND 161516Z AUTO 32004KT 1SM -SN BR FEW009 SCT013 OVC021 M02/M03 A2982 RMK AO2 P0001 T10221033
KLND 161507Z AUTO 34003KT 1 1/4SM -SN BR FEW009 BKN013 OVC023 M02/M03 A2982 RMK AO2 P0000 T10221028
KLND 161500Z AUTO 35005KT 1SM -SN BR BKN009 OVC023 M02/M03 A2982 RMK AO2 P0000 T10221033
KLND 161453Z AUTO 01006KT 1SM -SN BR FEW009 OVC023 M03/M04 A2982 RMK AO2 SLP119 P0001 60001 T10281039 51010
KLND 161429Z AUTO 18003KT 1 3/4SM -SN BR OVC025 M03/M03 A2982 RMK AO2 P0000 T10281033
KLND 161421Z AUTO 26003KT 4SM -SN BR OVC029 M01/M02 A2982 RMK AO2 P0000 T10111022
KLND 161353Z AUTO 23003KT 2SM -SN BR OVC022 00/M02 A2981 RMK AO2 UPB09E18SNB30 SLP116 P0000 T00001022
KLND 161344Z AUTO 23005KT 1 3/4SM -SN OVC022 01/M02 A2982 RMK AO2 UPB09E18SNB30 P0000 T00061022
KLND 161335Z AUTO 26006KT 2 1/2SM -SN OVC026 01/M04 A2981 RMK AO2 UPB09E18SNB30 P0000 T00061039
KLND 161253Z AUTO 28009KT 10SM OVC044 M01/M07 A2980 RMK AO2 SLP114 T10111072
KLND 161153Z AUTO 00000KT 10SM BKN050 OVC070 M03/M07 A2978 RMK AO2 SLP112 T10281067 10022 21044 51003
KLND 161053Z AUTO 24010KT 10SM OVC085 M02/M07 A2978 RMK AO2 SLP108 T10221072
KLND 160953Z AUTO 00000KT 10SM BKN090 M04/M08 A2980 RMK AO2 SLP120 T10441083
KLND 160853Z AUTO 00000KT 10SM FEW090 M01/M09 A2977 RMK AO2 SLP103 T10061094 53002
KLND 160753Z AUTO 28004KT 10SM CLR 00/M09 A2976 RMK AO2 SLP095 T00001089
KLND 160653Z AUTO 00000KT 10SM CLR M02/M08 A2976 RMK AO2 SLP098 T10171078 400281106
KLND 160553Z AUTO 16006KT 10SM CLR 02/M08 A2977 RMK AO2 SLP100 T00171083 10028 21039 56016
KLND 160453Z AUTO 22008KT 10SM CLR M02/M07 A2978 RMK AO2 SLP122 T10221067
KLND 160353Z AUTO 14006KT 10SM CLR M03/M07 A2978 RMK AO2 SLP130 T10331072
KLND 160253Z AUTO 20003KT 10SM CLR 00/M07 A2982 RMK AO2 SLP133 T00001072 56006
KLND 160153Z AUTO 27009KT 10SM CLR M02/M07 A2983 RMK AO2 SLP143 T10221067
KLND 160053Z AUTO 00000KT 10SM CLR M03/M07 A2982 RMK AO2 SLP140 T10281067
KLND 152353Z AUTO 26006KT 10SM CLR M02/M06 A2984 RMK AO2 SLP147 T10221061 10006 21033 58018
KLND 152253Z AUTO 11005KT 10SM CLR M02/M06 A2986 RMK AO2 SLP154 T10171056
KLND 152153Z AUTO 16006KT 10SM CLR M02/M05 A2989 RMK AO2 SLP157 T10171050
KLND 152053Z AUTO 29006KT 10SM CLR M02/M06 A2990 RMK AO2 SLP162 T10171061 56031
KLND 151953Z AUTO 35003KT 10SM CLR M01/M07 A2992 RMK AO2 SLP165 T10111072
KLND 151853Z AUTO 00000KT 10SM CLR M01/M08 A2996 RMK AO2 SLP183 T10061083
KLND 151753Z AUTO 00000KT 10SM CLR M04/M10 A3001 RMK AO2 SLP213 T10391100 11039 21100 56008
KLND 151653Z AUTO 35005KT 10SM CLR M07/M11 A3002 RMK AO2 SLP217 T10721111
KLND 151553Z AUTO 14004KT 10SM CLR M09/M12 A3003 RMK AO2 SLP223 T10941122
KLND 151453Z AUTO 36005KT 10SM CLR M08/M12 A3004 RMK AO2 SLP223 T10831117 55005
KLND 151353Z AUTO 27003KT 10SM CLR M08/M12 A3003 RMK AO2 SLP218 T10781122
KLND 151253Z AUTO VRB06KT 10SM CLR M08/M12 A3004 RMK AO2 SLP219 T10781117
KLND 151153Z AUTO 24004KT 10SM CLR M08/M11 A3006 RMK AO2 SLP221 T10781111 11056 21106 58007
KLND 151053Z AUTO 00000KT 10SM CLR M08/M11 A3007 RMK AO2 SLP224 T10831111
KLND 150953Z AUTO 34004KT 10SM CLR M06/M11 A3009 RMK AO2 SLP218 T10611111
KLND 150853Z AUTO 28004KT 10SM CLR M07/M10 A3009 RMK AO2 SLP218 T10671100 58016
KLND 150753Z AUTO 00000KT 10SM CLR M06/M10 A3011 RMK AO2 SLP234 T10611100
KLND 150653Z AUTO 01004KT 10SM CLR M08/M11 A3014 RMK AO2 SLP252 T10781106 400171089